createdAt,value
2023-04-24T00:00:16.734Z,42.13
2023-04-24T00:02:48.325Z,44.50
2023-04-24T00:05:18.661Z,43.55
2023-04-24T00:07:48.459Z,49.08
2023-04-24T00:10:17.459Z,44.58
2023-04-24T00:12:46.864Z,42.08
2023-04-24T00:15:17.653Z,48.00
2023-04-24T00:17:49.588Z,51.83
2023-04-24T00:20:20.057Z,48.72
2023-04-24T00:22:49.523Z,46.67
2023-04-24T00:25:21.528Z,46.80
2023-04-24T00:27:51.460Z,42.95
2023-04-24T00:30:22.398Z,40.97
2023-04-24T00:32:51.616Z,44.92
2023-04-24T00:35:22.079Z,40.38
2023-04-24T00:37:51.819Z,43.95
2023-04-24T00:40:20.858Z,46.45
2023-04-24T00:42:50.652Z,46.50
2023-04-24T00:45:20.243Z,44.05
2023-04-24T00:47:51.692Z,49.33
2023-04-24T00:50:22.535Z,39.70
2023-04-24T00:52:52.186Z,43.70
2023-04-24T00:55:22.676Z,48.22
2023-04-24T00:57:52.676Z,47.13
2023-04-24T01:00:22.268Z,41.10
2023-04-24T01:02:54.366Z,45.53
2023-04-24T01:05:24.108Z,47.22
2023-04-24T01:07:53.797Z,49.53
2023-04-24T01:10:23.998Z,49.65
2023-04-24T01:12:56.710Z,53.13
2023-04-24T01:15:26.049Z,48.78
2023-04-24T01:17:57.128Z,47.92
2023-04-24T01:20:28.476Z,53.30
2023-04-24T01:22:59.652Z,47.58
2023-04-24T01:25:29.170Z,46.77
2023-04-24T01:28:00.556Z,50.10
2023-04-24T01:30:30.427Z,43.47
2023-04-24T01:33:02.018Z,42.37
2023-04-24T01:35:31.550Z,47.25
2023-04-24T01:38:02.593Z,48.55
2023-04-24T01:40:32.133Z,48.90
2023-04-24T01:43:01.787Z,47.22
2023-04-24T01:45:33.479Z,46.05
2023-04-24T01:48:07.168Z,46.95
2023-04-24T01:50:37.417Z,42.92
2023-04-24T01:53:10.106Z,47.53
2023-04-24T01:55:39.926Z,45.47
2023-04-24T01:58:09.516Z,42.42
2023-04-24T02:00:39.144Z,41.55
2023-04-24T02:03:09.276Z,46.63
2023-04-24T02:05:38.902Z,46.25
2023-04-24T02:08:09.774Z,45.60
2023-04-24T02:10:41.360Z,50.05
2023-04-24T02:13:11.249Z,47.40
2023-04-24T02:15:40.920Z,43.00
2023-04-24T02:18:12.711Z,40.45
2023-04-24T02:20:42.199Z,44.53
2023-04-24T02:23:14.268Z,44.80
2023-04-24T02:28:13.288Z,48.90
2023-04-24T02:30:42.619Z,51.35
2023-04-24T02:33:11.767Z,48.17
2023-04-24T02:35:41.036Z,45.05
2023-04-24T02:38:10.527Z,45.30
2023-04-24T02:40:41.540Z,41.65
2023-04-24T02:43:13.147Z,44.75
2023-04-24T02:45:42.254Z,41.03
2023-04-24T02:48:11.930Z,46.92
2023-04-24T02:50:41.556Z,42.88
2023-04-24T02:53:10.882Z,38.25
2023-04-24T02:55:41.879Z,45.30
2023-04-24T02:58:11.921Z,46.83
2023-04-24T03:00:41.180Z,46.20
2023-04-24T03:03:11.029Z,51.03
2023-04-24T03:05:43.133Z,44.00
2023-04-24T03:10:45.289Z,43.08
2023-04-24T03:13:19.057Z,42.00
2023-04-24T03:15:48.823Z,41.60
2023-04-24T03:18:18.323Z,44.88
2023-04-24T03:20:48.962Z,43.55
2023-04-24T03:23:18.431Z,40.72
2023-04-24T03:25:53.487Z,39.75
2023-04-24T03:28:23.431Z,38.03
2023-04-24T03:31:01.348Z,38.05
2023-04-24T03:33:34.872Z,35.47
2023-04-24T03:36:06.924Z,37.95
2023-04-24T03:38:42.659Z,31.33
2023-04-24T03:41:29.814Z,36.47
2023-04-24T03:44:13.242Z,34.42
2023-04-24T03:46:43.991Z,33.10
2023-04-24T03:49:13.891Z,30.42
2023-04-24T03:51:46.645Z,29.45
2023-04-24T03:54:24.199Z,34.08
2023-04-24T03:56:58.616Z,34.88
2023-04-24T03:59:29.897Z,34.08
2023-04-24T04:02:28.623Z,36.20
2023-04-24T04:04:58.501Z,39.65
2023-04-24T04:07:31.021Z,35.17
2023-04-24T04:10:00.797Z,38.05
2023-04-24T04:12:31.874Z,38.97
2023-04-24T04:15:01.317Z,37.00
2023-04-24T04:17:31.188Z,40.65
2023-04-24T04:20:06.299Z,41.65
2023-04-24T04:22:36.150Z,38.63
2023-04-24T04:25:07.897Z,34.88
2023-04-24T04:27:39.856Z,34.35
2023-04-24T04:30:13.663Z,36.03
2023-04-24T04:32:52.607Z,37.05
2023-04-24T04:35:23.129Z,43.65
2023-04-24T04:37:54.614Z,37.95
2023-04-24T04:40:37.705Z,36.67
2023-04-24T04:43:11.717Z,31.70
2023-04-24T04:45:47.281Z,32.25
2023-04-24T04:48:35.942Z,33.95
2023-04-24T04:51:08.710Z,32.03
2023-04-24T04:53:39.354Z,35.50
2023-04-24T04:56:10.373Z,34.85
2023-04-24T04:58:45.861Z,33.53
2023-04-24T05:01:18.631Z,35.97
2023-04-24T05:06:21.314Z,38.38
2023-04-24T05:08:52.260Z,38.40
2023-04-24T05:11:33.249Z,31.45
2023-04-24T05:14:06.335Z,38.13
2023-04-24T05:16:40.117Z,37.58
2023-04-24T05:19:10.575Z,35.92
2023-04-24T05:21:43.345Z,37.65
2023-04-24T05:24:13.899Z,39.50
2023-04-24T05:27:01.852Z,40.28
2023-04-24T05:29:38.892Z,46.78
2023-04-24T05:32:09.039Z,42.67
2023-04-24T05:34:38.428Z,42.15
2023-04-24T05:37:11.066Z,36.88
2023-04-24T05:39:43.350Z,37.00
2023-04-24T05:42:12.871Z,39.88
2023-04-24T05:44:44.744Z,40.58
2023-04-24T05:47:14.120Z,38.92
2023-04-24T05:49:44.070Z,39.85
2023-04-24T05:52:13.414Z,36.72
2023-04-24T05:54:43.676Z,38.72
2023-04-24T05:57:16.142Z,36.88
2023-04-24T05:59:57.432Z,34.25
2023-04-24T06:02:34.024Z,40.45
2023-04-24T06:05:07.107Z,40.40
2023-04-24T06:07:37.018Z,36.28
2023-04-24T06:10:09.541Z,35.42
2023-04-24T06:12:44.808Z,35.72
2023-04-24T06:15:21.182Z,40.85
2023-04-24T06:17:56.852Z,32.00
2023-04-24T06:20:30.726Z,35.03
2023-04-24T06:23:00.225Z,32.30
2023-04-24T06:25:29.604Z,38.53
2023-04-24T06:27:59.856Z,35.38
2023-04-24T06:30:30.984Z,38.28
2023-04-24T06:33:06.185Z,43.33
2023-04-24T06:38:11.835Z,29.98
2023-04-24T06:40:41.609Z,19.83
2023-04-24T06:43:12.171Z,26.40
2023-04-24T06:45:44.936Z,21.77
2023-04-24T06:48:19.662Z,20.98
2023-04-24T06:50:49.089Z,18.95
2023-04-24T06:53:18.840Z,19.35
2023-04-24T06:55:48.742Z,20.90
2023-04-24T06:58:18.205Z,28.77
2023-04-24T07:00:50.023Z,27.02
2023-04-24T07:03:19.581Z,23.17
2023-04-24T07:05:49.501Z,21.98
2023-04-24T07:08:20.120Z,19.33
2023-04-24T07:10:49.811Z,19.38
2023-04-24T07:13:19.203Z,21.27
2023-04-24T07:15:51.969Z,19.48
2023-04-24T07:18:21.934Z,16.27
2023-04-24T07:20:51.493Z,13.23
2023-04-24T07:23:21.229Z,21.50
2023-04-24T07:25:50.909Z,16.48
2023-04-24T07:28:21.212Z,17.17
2023-04-24T07:30:55.280Z,16.10
2023-04-24T07:33:24.636Z,13.52
2023-04-24T07:35:54.141Z,22.17
2023-04-24T07:38:23.576Z,17.02
2023-04-24T07:40:56.205Z,17.98
2023-04-24T07:43:26.120Z,14.15
2023-04-24T07:45:57.926Z,16.38
2023-04-24T07:48:27.823Z,16.30
2023-04-24T07:50:57.636Z,21.63
2023-04-24T07:53:26.958Z,15.20
2023-04-24T07:55:57.580Z,13.65
2023-04-24T07:58:26.808Z,14.73
2023-04-24T08:00:57.865Z,21.08
2023-04-24T08:03:27.295Z,17.27
2023-04-24T08:05:56.620Z,20.88
2023-04-24T08:08:26.297Z,16.95
2023-04-24T08:10:56.050Z,20.00
2023-04-24T08:13:25.646Z,17.30
2023-04-24T08:16:10.088Z,20.45
2023-04-24T08:21:56.604Z,17.40
2023-04-24T08:24:28.515Z,17.52
2023-04-24T08:27:09.983Z,21.10
2023-04-24T08:29:39.440Z,12.77
2023-04-24T08:32:09.282Z,18.13
2023-04-24T08:34:39.193Z,20.85
2023-04-24T08:37:15.106Z,19.40
2023-04-24T08:39:56.411Z,16.67
2023-04-24T08:42:27.121Z,18.77
2023-04-24T08:45:03.739Z,22.52
2023-04-24T08:47:35.921Z,20.35
2023-04-24T08:50:06.901Z,24.50
2023-04-24T08:52:39.432Z,20.50
2023-04-24T08:55:10.455Z,16.35
2023-04-24T08:57:42.422Z,17.25
2023-04-24T09:00:12.606Z,22.77
2023-04-24T09:02:46.098Z,23.88
2023-04-24T09:05:16.969Z,15.63
2023-04-24T09:07:49.940Z,12.93
2023-04-24T09:10:20.619Z,20.63
2023-04-24T09:12:51.010Z,20.55
2023-04-24T09:15:21.845Z,22.02
2023-04-24T09:17:52.367Z,18.05
2023-04-24T09:20:21.783Z,18.15
2023-04-24T09:22:57.012Z,19.08
2023-04-24T09:25:37.953Z,25.45
2023-04-24T09:28:11.039Z,15.27
2023-04-24T09:30:44.113Z,20.42
2023-04-24T09:33:14.026Z,26.17
2023-04-24T09:35:45.922Z,18.92
2023-04-24T09:38:16.918Z,21.52
2023-04-24T09:40:46.917Z,21.08
2023-04-24T09:43:16.305Z,24.42
2023-04-24T09:45:46.949Z,22.83
2023-04-24T09:48:17.053Z,20.67
2023-04-24T09:50:49.924Z,14.00
2023-04-24T09:53:37.319Z,17.83
2023-04-24T09:56:15.433Z,15.25
2023-04-24T09:59:13.478Z,20.13
2023-04-24T10:01:45.825Z,16.02
2023-04-24T10:04:20.967Z,20.67
2023-04-24T10:06:52.540Z,23.50
2023-04-24T10:09:22.969Z,24.17
2023-04-24T10:11:54.683Z,21.83
2023-04-24T10:14:24.743Z,24.27
2023-04-24T10:16:56.021Z,25.23
2023-04-24T10:19:28.760Z,20.98
2023-04-24T10:21:58.926Z,25.63
2023-04-24T10:24:28.213Z,26.33
2023-04-24T10:26:59.692Z,16.38
2023-04-24T10:29:28.916Z,22.00
2023-04-24T10:31:59.226Z,26.45
2023-04-24T10:34:28.400Z,21.58
2023-04-24T10:36:58.841Z,20.83
2023-04-24T10:39:28.336Z,29.60
2023-04-24T10:42:00.308Z,30.00
2023-04-24T10:44:38.973Z,25.65
2023-04-24T10:47:09.206Z,24.42
2023-04-24T10:49:38.905Z,27.27
2023-04-24T10:52:08.077Z,26.17
2023-04-24T10:54:38.294Z,23.88
2023-04-24T10:57:26.250Z,22.13
2023-04-24T11:00:12.736Z,24.65
2023-04-24T11:02:49.543Z,30.42
2023-04-24T11:05:19.721Z,20.50
2023-04-24T11:08:07.651Z,24.63
2023-04-24T11:10:40.626Z,27.63
2023-04-24T11:13:10.963Z,23.88
2023-04-24T11:15:45.157Z,22.80
2023-04-24T11:18:21.506Z,21.23
2023-04-24T11:20:50.981Z,27.17
2023-04-24T11:23:22.080Z,22.95
2023-04-24T11:26:13.020Z,22.83
2023-04-24T11:28:49.939Z,25.00
2023-04-24T11:31:39.005Z,26.33
2023-04-24T11:34:15.462Z,22.02
2023-04-24T11:37:04.113Z,16.05
2023-04-24T11:39:41.873Z,23.02
2023-04-24T11:42:18.046Z,15.43
2023-04-24T11:44:50.934Z,18.90
2023-04-24T11:47:20.880Z,15.40
2023-04-24T11:50:05.995Z,21.77
2023-04-24T11:55:36.179Z,27.98
2023-04-24T11:58:11.291Z,28.40
2023-04-24T12:00:42.844Z,23.23
2023-04-24T12:05:42.362Z,29.13
2023-04-24T12:08:11.768Z,43.13
2023-04-24T12:10:43.674Z,27.48
2023-04-24T12:13:13.298Z,34.67
2023-04-24T12:15:43.445Z,26.90
2023-04-24T12:18:17.945Z,23.00
2023-04-24T12:20:47.128Z,34.67
2023-04-24T12:23:16.237Z,38.67
2023-04-24T12:25:46.662Z,32.13
2023-04-24T12:28:15.718Z,35.88
2023-04-24T12:30:46.265Z,26.80
2023-04-24T12:33:15.314Z,25.88
2023-04-24T12:35:44.330Z,24.88
2023-04-24T12:38:15.006Z,27.20
2023-04-24T12:40:45.032Z,25.05
2023-04-24T12:43:23.179Z,26.75
2023-04-24T12:45:52.220Z,31.88
2023-04-24T12:48:22.132Z,29.35
2023-04-24T12:50:53.789Z,35.13
2023-04-24T12:53:25.125Z,27.83
2023-04-24T12:55:54.593Z,29.58
2023-04-24T12:58:25.718Z,33.78
2023-04-24T13:00:55.446Z,29.13
2023-04-24T13:03:25.352Z,27.77
2023-04-24T13:05:54.517Z,28.17
2023-04-24T13:08:23.445Z,27.92
2023-04-24T13:10:53.268Z,27.50
2023-04-24T13:13:22.676Z,28.42
2023-04-24T13:15:53.149Z,46.78
2023-04-24T13:18:22.422Z,25.15
2023-04-24T13:20:52.104Z,29.02
2023-04-24T13:23:21.402Z,29.55
2023-04-24T13:25:50.569Z,30.70
2023-04-24T13:28:20.323Z,31.05
2023-04-24T13:30:54.175Z,37.72
2023-04-24T13:33:23.882Z,35.50
2023-04-24T13:35:54.551Z,36.33
2023-04-24T13:38:26.862Z,30.77
2023-04-24T13:40:56.169Z,25.77
2023-04-24T13:43:25.770Z,28.42
2023-04-24T13:45:56.278Z,25.77
2023-04-24T13:48:25.385Z,26.33
2023-04-24T13:50:54.360Z,26.67
2023-04-24T13:53:23.285Z,25.42
2023-04-24T13:55:52.459Z,27.08
2023-04-24T13:58:21.776Z,35.13
2023-04-24T14:00:51.370Z,31.65
2023-04-24T14:03:21.983Z,31.45
2023-04-24T14:05:51.466Z,35.20
2023-04-24T14:08:27.568Z,36.72
2023-04-24T14:10:56.767Z,38.70
2023-04-24T14:13:26.091Z,26.23
2023-04-24T14:15:57.398Z,36.63
2023-04-24T14:18:28.257Z,29.67
2023-04-24T14:20:57.364Z,32.85
2023-04-24T14:23:26.435Z,35.30
2023-04-24T14:25:58.198Z,35.55
2023-04-24T14:28:28.116Z,32.72
2023-04-24T14:30:57.353Z,30.58
2023-04-24T14:33:27.705Z,35.53
2023-04-24T14:35:57.780Z,27.17
2023-04-24T14:38:26.868Z,32.78
2023-04-24T14:41:06.213Z,38.30
2023-04-24T14:43:36.473Z,37.85
2023-04-24T14:46:05.701Z,34.97
2023-04-24T14:48:36.212Z,37.85
2023-04-24T14:51:05.545Z,26.77
2023-04-24T14:53:34.647Z,52.33
2023-04-24T14:56:04.012Z,30.58
2023-04-24T14:58:33.130Z,35.33
2023-04-24T15:01:02.233Z,36.58
2023-04-24T15:03:32.154Z,36.05
2023-04-24T15:06:03.064Z,29.08
2023-04-24T15:08:32.299Z,31.88
2023-04-24T15:11:01.521Z,31.23
2023-04-24T15:13:30.732Z,31.77
2023-04-24T15:15:59.989Z,42.08
2023-04-24T15:18:30.618Z,32.95
2023-04-24T15:21:00.346Z,36.78
2023-04-24T15:23:31.228Z,37.97
2023-04-24T15:26:00.934Z,26.73
2023-04-24T15:28:30.335Z,31.98
2023-04-24T15:30:59.461Z,34.92
2023-04-24T15:33:28.531Z,34.13
2023-04-24T15:35:57.651Z,36.88
2023-04-24T15:38:26.853Z,34.10
2023-04-24T15:40:57.294Z,31.27
2023-04-24T15:43:26.601Z,33.22
2023-04-24T15:45:55.786Z,36.80
2023-04-24T15:48:27.674Z,29.73
2023-04-24T15:50:56.809Z,31.52
2023-04-24T15:53:26.369Z,28.27
2023-04-24T15:55:58.307Z,27.73
2023-04-24T15:58:27.702Z,25.33
2023-04-24T16:00:57.007Z,20.10
2023-04-24T16:03:26.308Z,24.88
2023-04-24T16:05:55.676Z,85.75
2023-04-24T16:08:24.857Z,25.75
2023-04-24T16:10:53.893Z,23.30
2023-04-24T16:13:24.271Z,28.27
2023-04-24T16:15:53.695Z,26.92
2023-04-24T16:18:23.068Z,24.05
2023-04-24T16:20:52.396Z,25.70
2023-04-24T16:23:21.637Z,29.75
2023-04-24T16:25:53.535Z,30.90
2023-04-24T16:28:24.064Z,37.28
2023-04-24T16:30:53.038Z,33.00
2023-04-24T16:33:22.273Z,40.50
2023-04-24T16:35:52.050Z,39.90
2023-04-24T16:38:20.982Z,33.47
2023-04-24T16:40:50.447Z,33.20
2023-04-24T16:43:19.698Z,26.00
2023-04-24T16:45:50.087Z,32.55
2023-04-24T16:48:19.157Z,38.80
2023-04-24T16:50:48.401Z,32.67
2023-04-24T16:53:18.797Z,35.65
2023-04-24T16:55:49.204Z,29.58
2023-04-24T17:00:50.763Z,31.15
2023-04-24T17:03:20.201Z,39.30
2023-04-24T17:05:49.558Z,31.00
2023-04-24T17:08:18.833Z,29.02
2023-04-24T17:10:48.049Z,32.95
2023-04-24T17:13:17.681Z,30.70
2023-04-24T17:15:46.838Z,25.00
2023-04-24T17:18:17.796Z,30.52
2023-04-24T17:20:46.928Z,33.90
2023-04-24T17:23:16.088Z,33.85
2023-04-24T17:25:45.173Z,34.58
2023-04-24T17:28:18.236Z,37.17
2023-04-24T17:30:47.344Z,36.47
2023-04-24T17:33:17.740Z,37.28
2023-04-24T17:35:47.375Z,24.70
2023-04-24T17:38:17.000Z,30.20
2023-04-24T17:40:46.955Z,23.30
2023-04-24T17:43:18.416Z,21.20
2023-04-24T17:45:47.666Z,25.40
2023-04-24T17:48:18.745Z,28.17
2023-04-24T17:50:48.118Z,26.40
2023-04-24T17:53:19.052Z,31.98
2023-04-24T17:55:48.497Z,22.52
2023-04-24T17:58:19.027Z,26.92
2023-04-24T18:00:48.488Z,35.20
2023-04-24T18:03:19.220Z,36.53
2023-04-24T18:05:48.777Z,35.10
2023-04-24T18:08:17.796Z,34.65
2023-04-24T18:10:47.131Z,36.67
2023-04-24T18:13:16.275Z,36.92
2023-04-24T18:15:45.869Z,30.73
2023-04-24T18:18:15.364Z,39.65
2023-04-24T18:20:51.670Z,44.00
2023-04-24T18:23:21.122Z,44.92
2023-04-24T18:25:50.339Z,34.78
2023-04-24T18:28:19.529Z,42.05
2023-04-24T18:30:49.070Z,47.28
2023-04-24T18:33:22.195Z,38.72
2023-04-24T18:35:53.237Z,43.42
2023-04-24T18:38:22.449Z,42.17
2023-04-24T18:40:51.715Z,34.53
2023-04-24T18:43:22.408Z,44.28
2023-04-24T18:45:51.566Z,47.28
2023-04-24T18:48:21.285Z,41.95
2023-04-24T18:50:59.041Z,72.05
2023-04-24T18:53:31.335Z,41.88
2023-04-24T18:56:07.229Z,50.20
2023-04-24T18:58:36.666Z,48.20
2023-04-24T19:01:08.182Z,43.70
2023-04-24T19:03:38.023Z,50.13
2023-04-24T19:06:09.643Z,45.63
2023-04-24T19:08:39.238Z,33.88
2023-04-24T19:11:08.316Z,38.97
2023-04-24T19:13:37.560Z,43.00
2023-04-24T19:16:07.004Z,37.85
2023-04-24T19:18:36.302Z,37.10
2023-04-24T19:21:05.854Z,40.95
2023-04-24T19:23:39.620Z,49.15
2023-04-24T19:26:08.758Z,44.42
2023-04-24T19:28:39.191Z,39.47
2023-04-24T19:31:08.582Z,42.40
2023-04-24T19:33:39.533Z,41.90
2023-04-24T19:36:09.059Z,32.80
2023-04-24T19:38:40.835Z,42.08
2023-04-24T19:41:10.211Z,38.15
2023-04-24T19:43:39.779Z,42.15
2023-04-24T19:46:09.368Z,35.28
2023-04-24T19:48:38.547Z,46.35
2023-04-24T19:51:07.790Z,36.35
2023-04-24T19:53:42.950Z,45.60
2023-04-24T19:56:12.322Z,39.30
2023-04-24T19:58:48.263Z,43.30
2023-04-24T20:01:17.788Z,37.10
2023-04-24T20:03:47.261Z,49.10
2023-04-24T20:06:16.686Z,50.95
2023-04-24T20:08:47.906Z,42.78
2023-04-24T20:11:17.356Z,41.72
2023-04-24T20:13:47.067Z,40.03
2023-04-24T20:16:16.335Z,47.88
2023-04-24T20:18:45.938Z,40.42
2023-04-24T20:21:15.603Z,44.75
2023-04-24T20:23:45.003Z,42.50
2023-04-24T20:26:19.008Z,41.40
2023-04-24T20:28:49.222Z,39.15
2023-04-24T20:31:19.879Z,41.25
2023-04-24T20:33:50.398Z,42.45
2023-04-24T20:36:19.660Z,48.65
2023-04-24T20:38:49.085Z,42.75
2023-04-24T20:41:20.028Z,41.95
2023-04-24T20:43:49.213Z,46.40
2023-04-24T20:46:21.085Z,45.92
2023-04-24T20:48:50.845Z,41.67
2023-04-24T20:51:21.013Z,40.28
2023-04-24T20:53:50.224Z,43.83
2023-04-24T20:56:21.306Z,50.25
2023-04-24T20:58:51.157Z,41.58
2023-04-24T21:01:21.666Z,38.20
2023-04-24T21:03:52.578Z,41.17
2023-04-24T21:06:22.690Z,40.92
2023-04-24T21:08:52.133Z,35.28
2023-04-24T21:11:24.659Z,42.15
2023-04-24T21:13:54.121Z,45.22
2023-04-24T21:16:23.514Z,34.65
2023-04-24T21:18:52.994Z,44.45
2023-04-24T21:21:22.661Z,43.05
2023-04-24T21:23:56.171Z,39.53
2023-04-24T21:26:26.746Z,32.80
2023-04-24T21:28:55.902Z,33.40
2023-04-24T21:31:25.424Z,40.25
2023-04-24T21:33:54.714Z,46.50
2023-04-24T21:36:24.258Z,38.13
2023-04-24T21:38:56.649Z,35.72
2023-04-24T21:41:27.558Z,44.28
2023-04-24T21:43:57.296Z,51.35
2023-04-24T21:46:26.966Z,45.65
2023-04-24T21:48:56.538Z,53.03
2023-04-24T21:51:26.784Z,50.53
2023-04-24T21:53:55.924Z,34.85
2023-04-24T21:56:25.316Z,41.17
2023-04-24T21:58:58.968Z,38.35
2023-04-24T22:01:31.185Z,40.00
2023-04-24T22:04:00.672Z,34.58
2023-04-24T22:06:30.026Z,34.25
2023-04-24T22:08:59.150Z,51.05
2023-04-24T22:11:28.393Z,44.58
2023-04-24T22:13:59.072Z,47.72
2023-04-24T22:16:30.397Z,43.75
2023-04-24T22:19:01.544Z,37.97
2023-04-24T22:21:31.532Z,45.50
2023-04-24T22:24:00.980Z,41.55
2023-04-24T22:26:30.292Z,38.47
2023-04-24T22:29:00.913Z,45.25
2023-04-24T22:31:30.324Z,38.95
2023-04-24T22:33:59.617Z,41.75
2023-04-24T22:36:28.859Z,39.30
2023-04-24T22:38:58.473Z,37.95
2023-04-24T22:41:27.850Z,40.63
2023-04-24T22:43:57.275Z,46.45
2023-04-24T22:46:28.025Z,40.20
2023-04-24T22:48:58.521Z,35.97
2023-04-24T22:51:28.123Z,48.55
2023-04-24T22:53:57.645Z,39.97
2023-04-24T22:56:26.985Z,34.80
2023-04-24T22:58:56.222Z,37.30
2023-04-24T23:01:27.308Z,39.58
2023-04-24T23:03:58.150Z,41.75
2023-04-24T23:06:28.178Z,37.65
2023-04-24T23:08:57.481Z,46.08
2023-04-24T23:11:26.561Z,36.03
2023-04-24T23:13:55.570Z,40.03
2023-04-24T23:16:24.803Z,34.53
2023-04-24T23:18:53.849Z,34.47
2023-04-24T23:21:26.910Z,37.95
2023-04-24T23:23:56.139Z,31.45
2023-04-24T23:26:26.081Z,36.53
2023-04-24T23:28:55.706Z,35.72
2023-04-24T23:31:25.092Z,36.15
2023-04-24T23:33:54.486Z,41.00
2023-04-24T23:36:23.561Z,43.33
2023-04-24T23:38:54.293Z,35.60
2023-04-24T23:41:23.524Z,39.97
2023-04-24T23:43:52.715Z,39.50
2023-04-24T23:46:22.844Z,38.15
2023-04-24T23:48:52.148Z,42.22
2023-04-24T23:51:21.813Z,41.60
2023-04-24T23:53:53.703Z,31.38
2023-04-24T23:56:26.702Z,40.90
2023-04-24T23:58:55.956Z,40.13
